sensor_id;sensor_type;location;lat;lon;timestamp;pressure;altitude;pressure_sealevel;temperature;humidity
29907;BME280;16776;50.958;10.994;2024-03-29T00:00:09;96779.78;;;6.37;86.01
29907;BME280;16776;50.958;10.994;2024-03-29T00:02:35;96778.13;;;6.36;85.17
29907;BME280;16776;50.958;10.994;2024-03-29T00:05:00;96773.13;;;6.33;85.33
29907;BME280;16776;50.958;10.994;2024-03-29T00:07:26;96750.97;;;6.11;85.68
29907;BME280;16776;50.958;10.994;2024-03-29T00:09:51;96781.84;;;6.27;85.82
29907;BME280;16776;50.958;10.994;2024-03-29T00:12:18;96771.63;;;6.27;85.70
29907;BME280;16776;50.958;10.994;2024-03-29T00:14:44;96736.25;;;5.95;85.92
29907;BME280;16776;50.958;10.994;2024-03-29T00:17:10;96787.19;;;6.21;85.67
29907;BME280;16776;50.958;10.994;2024-03-29T00:19:35;96788.16;;;6.18;85.26
29907;BME280;16776;50.958;10.994;2024-03-29T00:22:01;96767.38;;;6.06;85.46
29907;BME280;16776;50.958;10.994;2024-03-29T00:24:26;96796.06;;;6.12;85.60
29907;BME280;16776;50.958;10.994;2024-03-29T00:26:52;96793.53;;;6.12;85.69
29907;BME280;16776;50.958;10.994;2024-03-29T00:29:19;96800.22;;;6.15;85.02
29907;BME280;16776;50.958;10.994;2024-03-29T00:31:45;96793.44;;;6.14;85.77
29907;BME280;16776;50.958;10.994;2024-03-29T00:34:10;96798.50;;;6.15;85.41
29907;BME280;16776;50.958;10.994;2024-03-29T00:36:36;96806.09;;;6.17;85.28
29907;BME280;16776;50.958;10.994;2024-03-29T00:39:02;96797.66;;;6.15;85.30
29907;BME280;16776;50.958;10.994;2024-03-29T00:41:27;96789.09;;;6.16;85.87
29907;BME280;16776;50.958;10.994;2024-03-29T00:43:53;96788.22;;;6.17;85.25
29907;BME280;16776;50.958;10.994;2024-03-29T00:46:20;96786.50;;;6.17;85.57
29907;BME280;16776;50.958;10.994;2024-03-29T00:48:45;96760.81;;;5.99;85.13
29907;BME280;16776;50.958;10.994;2024-03-29T00:51:11;96793.53;;;6.12;85.12
29907;BME280;16776;50.958;10.994;2024-03-29T00:53:37;96790.19;;;6.10;85.38
29907;BME280;16776;50.958;10.994;2024-03-29T00:56:03;96788.50;;;6.09;85.28
29907;BME280;16776;50.958;10.994;2024-03-29T00:58:29;96788.56;;;6.08;85.82
29907;BME280;16776;50.958;10.994;2024-03-29T01:00:54;96789.47;;;6.07;85.17
29907;BME280;16776;50.958;10.994;2024-03-29T01:03:21;96783.53;;;6.06;85.49
29907;BME280;16776;50.958;10.994;2024-03-29T01:05:47;96743.03;;;5.74;85.15
29907;BME280;16776;50.958;10.994;2024-03-29T01:08:12;96791.28;;;6.03;85.73
29907;BME280;16776;50.958;10.994;2024-03-29T01:10:38;96787.91;;;6.03;85.35
29907;BME280;16776;50.958;10.994;2024-03-29T01:13:04;96788.78;;;6.02;85.65
29907;BME280;16776;50.958;10.994;2024-03-29T01:15:29;96777.91;;;5.97;86.13
29907;BME280;16776;50.958;10.994;2024-03-29T01:17:55;96788.78;;;6.02;85.96
29907;BME280;16776;50.958;10.994;2024-03-29T01:20:22;96787.03;;;6.04;86.07
29907;BME280;16776;50.958;10.994;2024-03-29T01:22:47;96781.22;;;6.00;85.75
29907;BME280;16776;50.958;10.994;2024-03-29T01:25:13;96781.13;;;6.02;86.06
29907;BME280;16776;50.958;10.994;2024-03-29T01:27:39;96776.09;;;6.00;86.20
29907;BME280;16776;50.958;10.994;2024-03-29T01:30:05;96750.94;;;5.90;86.00
29907;BME280;16776;50.958;10.994;2024-03-29T01:32:31;96778.56;;;6.02;86.26
29907;BME280;16776;50.958;10.994;2024-03-29T01:34:57;96771.81;;;6.01;86.44
29907;BME280;16776;50.958;10.994;2024-03-29T01:37:24;96764.03;;;6.04;86.00
29907;BME280;16776;50.958;10.994;2024-03-29T01:39:49;96765.69;;;6.05;86.09
29907;BME280;16776;50.958;10.994;2024-03-29T01:42:15;96768.94;;;6.08;85.62
29907;BME280;16776;50.958;10.994;2024-03-29T01:44:41;96782.50;;;6.10;85.56
29907;BME280;16776;50.958;10.994;2024-03-29T01:47:08;96785.75;;;6.14;85.83
29907;BME280;16776;50.958;10.994;2024-03-29T01:49:34;96769.41;;;6.19;85.58
29907;BME280;16776;50.958;10.994;2024-03-29T01:52:02;96770.88;;;6.25;85.92
29907;BME280;16776;50.958;10.994;2024-03-29T01:54:30;96782.63;;;6.29;85.41
29907;BME280;16776;50.958;10.994;2024-03-29T01:56:57;96777.53;;;6.29;85.85
29907;BME280;16776;50.958;10.994;2024-03-29T01:59:25;96785.91;;;6.33;85.28
29907;BME280;16776;50.958;10.994;2024-03-29T02:01:52;96780.06;;;6.29;85.64
29907;BME280;16776;50.958;10.994;2024-03-29T02:04:19;96785.72;;;6.37;85.19
29907;BME280;16776;50.958;10.994;2024-03-29T02:06:46;96762.38;;;6.24;85.43
29907;BME280;16776;50.958;10.994;2024-03-29T02:09:13;96783.03;;;6.40;85.16
29907;BME280;16776;50.958;10.994;2024-03-29T02:11:41;96782.16;;;6.41;84.95
29907;BME280;16776;50.958;10.994;2024-03-29T02:14:07;96792.44;;;6.40;84.83
29907;BME280;16776;50.958;10.994;2024-03-29T02:16:34;96796.75;;;6.39;85.33
29907;BME280;16776;50.958;10.994;2024-03-29T02:19:00;96791.63;;;6.39;84.74
29907;BME280;16776;50.958;10.994;2024-03-29T02:21:27;96795.94;;;6.37;85.60
29907;BME280;16776;50.958;10.994;2024-03-29T02:24:00;96796.50;;;6.45;85.19
29907;BME280;16776;50.958;10.994;2024-03-29T02:26:26;96791.53;;;6.41;85.13
29907;BME280;16776;50.958;10.994;2024-03-29T02:28:56;96790.66;;;6.42;84.99
29907;BME280;16776;50.958;10.994;2024-03-29T02:31:23;96794.00;;;6.44;84.56
29907;BME280;16776;50.958;10.994;2024-03-29T02:33:50;96785.91;;;6.33;85.58
29907;BME280;16776;50.958;10.994;2024-03-29T02:36:16;96794.03;;;6.42;84.93
29907;BME280;16776;50.958;10.994;2024-03-29T02:38:43;96808.59;;;6.40;85.15
29907;BME280;16776;50.958;10.994;2024-03-29T02:41:11;96811.16;;;6.40;84.53
29907;BME280;16776;50.958;10.994;2024-03-29T02:43:37;96793.41;;;6.37;84.76
29907;BME280;16776;50.958;10.994;2024-03-29T02:46:04;96788.38;;;6.34;85.17
29907;BME280;16776;50.958;10.994;2024-03-29T02:48:30;96796.00;;;6.36;84.59
29907;BME280;16776;50.958;10.994;2024-03-29T02:50:56;96788.38;;;6.34;84.60
29907;BME280;16776;50.958;10.994;2024-03-29T02:53:23;96788.53;;;6.31;84.36
29907;BME280;16776;50.958;10.994;2024-03-29T02:55:48;96774.13;;;6.29;84.45
29907;BME280;16776;50.958;10.994;2024-03-29T02:58:16;96768.19;;;6.28;84.27
29907;BME280;16776;50.958;10.994;2024-03-29T03:00:42;96770.94;;;6.23;84.86
29907;BME280;16776;50.958;10.994;2024-03-29T03:03:08;96779.63;;;6.19;84.38
29907;BME280;16776;50.958;10.994;2024-03-29T03:05:34;96782.31;;;6.15;85.10
29907;BME280;16776;50.958;10.994;2024-03-29T03:08:00;96792.69;;;6.12;84.51
29907;BME280;16776;50.958;10.994;2024-03-29T03:10:45;96776.63;;;6.08;84.59
29907;BME280;16776;50.958;10.994;2024-03-29T03:13:27;96753.56;;;6.10;84.75
29907;BME280;16776;50.958;10.994;2024-03-29T03:15:54;96763.09;;;6.06;84.56
29907;BME280;16776;50.958;10.994;2024-03-29T03:18:21;96752.09;;;6.04;84.29
29907;BME280;16776;50.958;10.994;2024-03-29T03:20:50;96757.13;;;6.06;84.84
29907;BME280;16776;50.958;10.994;2024-03-29T03:23:17;96762.34;;;6.03;84.93
29907;BME280;16776;50.958;10.994;2024-03-29T03:25:43;96752.19;;;6.01;85.09
29907;BME280;16776;50.958;10.994;2024-03-29T03:28:09;96751.31;;;6.02;84.78
29907;BME280;16776;50.958;10.994;2024-03-29T03:30:39;96748.50;;;6.08;84.76
29907;BME280;16776;50.958;10.994;2024-03-29T03:33:05;96752.09;;;6.04;84.54
29907;BME280;16776;50.958;10.994;2024-03-29T03:35:31;96748.69;;;6.04;84.83
29907;BME280;16776;50.958;10.994;2024-03-29T03:37:58;96744.41;;;6.04;84.76
29907;BME280;16776;50.958;10.994;2024-03-29T03:40:23;96729.03;;;6.06;85.08
29907;BME280;16776;50.958;10.994;2024-03-29T03:42:50;96716.25;;;6.06;84.80
29907;BME280;16776;50.958;10.994;2024-03-29T03:45:15;96712.69;;;6.10;84.40
29907;BME280;16776;50.958;10.994;2024-03-29T03:47:43;96721.00;;;6.15;84.21
29907;BME280;16776;50.958;10.994;2024-03-29T03:50:09;96720.06;;;6.17;84.68
29907;BME280;16776;50.958;10.994;2024-03-29T03:52:36;96723.31;;;6.21;84.48
29907;BME280;16776;50.958;10.994;2024-03-29T03:55:01;96716.38;;;6.24;84.12
29907;BME280;16776;50.958;10.994;2024-03-29T03:57:28;96708.63;;;6.26;84.54
29907;BME280;16776;50.958;10.994;2024-03-29T03:59:54;96714.34;;;6.33;84.39
29907;BME280;16776;50.958;10.994;2024-03-29T04:02:20;96728.66;;;6.37;84.63
29907;BME280;16776;50.958;10.994;2024-03-29T04:04:48;96712.16;;;6.44;84.62
29907;BME280;16776;50.958;10.994;2024-03-29T04:07:15;96715.41;;;6.47;83.98
29907;BME280;16776;50.958;10.994;2024-03-29T04:09:40;96711.09;;;6.49;84.16
29907;BME280;16776;50.958;10.994;2024-03-29T04:12:07;96732.22;;;6.53;83.89
29907;BME280;16776;50.958;10.994;2024-03-29T04:14:33;96747.53;;;6.54;84.09
29907;BME280;16776;50.958;10.994;2024-03-29T04:16:59;96736.41;;;6.55;84.14
29907;BME280;16776;50.958;10.994;2024-03-29T04:19:25;96734.69;;;6.56;83.38
29907;BME280;16776;50.958;10.994;2024-03-29T04:21:54;96741.41;;;6.58;84.41
29907;BME280;16776;50.958;10.994;2024-03-29T04:24:19;96744.91;;;6.56;84.60
29907;BME280;16776;50.958;10.994;2024-03-29T04:26:46;96747.41;;;6.57;83.82
29907;BME280;16776;50.958;10.994;2024-03-29T04:29:12;96738.06;;;6.56;83.66
29907;BME280;16776;50.958;10.994;2024-03-29T04:31:39;96749.97;;;6.57;83.76
29907;BME280;16776;50.958;10.994;2024-03-29T04:34:05;96760.94;;;6.59;84.65
29907;BME280;16776;50.958;10.994;2024-03-29T04:36:32;96757.56;;;6.59;83.84
29907;BME280;16776;50.958;10.994;2024-03-29T04:38:58;96763.50;;;6.59;84.08
29907;BME280;16776;50.958;10.994;2024-03-29T04:41:25;96760.13;;;6.59;83.92
29907;BME280;16776;50.958;10.994;2024-03-29T04:43:51;96759.38;;;6.57;83.85
29907;BME280;16776;50.958;10.994;2024-03-29T04:46:18;96752.59;;;6.56;84.51
29907;BME280;16776;50.958;10.994;2024-03-29T04:48:45;96758.53;;;6.56;83.89
29907;BME280;16776;50.958;10.994;2024-03-29T04:51:14;96761.16;;;6.55;84.04
29907;BME280;16776;50.958;10.994;2024-03-29T04:53:41;96737.00;;;6.40;84.54
29907;BME280;16776;50.958;10.994;2024-03-29T04:56:08;96769.59;;;6.57;84.28
29907;BME280;16776;50.958;10.994;2024-03-29T04:58:35;96773.97;;;6.53;84.49
29907;BME280;16776;50.958;10.994;2024-03-29T05:01:02;96767.97;;;6.54;84.34
29907;BME280;16776;50.958;10.994;2024-03-29T05:03:28;96787.66;;;6.52;84.02
29907;BME280;16776;50.958;10.994;2024-03-29T05:05:56;96780.78;;;6.54;84.13
29907;BME280;16776;50.958;10.994;2024-03-29T05:08:23;96775.78;;;6.51;84.45
29907;BME280;16776;50.958;10.994;2024-03-29T05:10:50;96779.25;;;6.50;84.32
29907;BME280;16776;50.958;10.994;2024-03-29T05:13:18;96793.59;;;6.53;84.28
29907;BME280;16776;50.958;10.994;2024-03-29T05:15:46;96792.03;;;6.50;84.66
29907;BME280;16776;50.958;10.994;2024-03-29T05:18:12;96795.47;;;6.49;85.00
29907;BME280;16776;50.958;10.994;2024-03-29T05:20:39;96803.16;;;6.49;84.11
29907;BME280;16776;50.958;10.994;2024-03-29T05:23:06;96818.47;;;6.49;84.51
29907;BME280;16776;50.958;10.994;2024-03-29T05:25:33;96801.13;;;6.36;84.18
29907;BME280;16776;50.958;10.994;2024-03-29T05:28:00;96815.03;;;6.50;84.18
29907;BME280;16776;50.958;10.994;2024-03-29T05:30:28;96808.06;;;6.54;84.38
29907;BME280;16776;50.958;10.994;2024-03-29T05:32:55;96807.22;;;6.53;84.87
29907;BME280;16776;50.958;10.994;2024-03-29T05:35:22;96807.19;;;6.55;85.05
29907;BME280;16776;50.958;10.994;2024-03-29T05:37:48;96806.22;;;6.57;84.89
29907;BME280;16776;50.958;10.994;2024-03-29T05:40:17;96802.78;;;6.58;84.16
29907;BME280;16776;50.958;10.994;2024-03-29T05:42:44;96799.22;;;6.62;85.07
29907;BME280;16776;50.958;10.994;2024-03-29T05:45:23;96798.75;;;6.75;84.90
29907;BME280;16776;50.958;10.994;2024-03-29T05:47:53;96796.19;;;6.73;84.08
29907;BME280;16776;50.958;10.994;2024-03-29T05:50:19;96792.78;;;6.74;84.64
29907;BME280;16776;50.958;10.994;2024-03-29T05:52:46;96805.38;;;6.79;84.43
29907;BME280;16776;50.958;10.994;2024-03-29T05:55:13;96783.03;;;6.84;85.16
29907;BME280;16776;50.958;10.994;2024-03-29T05:57:40;96787.13;;;6.88;84.44
29907;BME280;16776;50.958;10.994;2024-03-29T06:00:12;96779.97;;;6.96;84.81
29907;BME280;16776;50.958;10.994;2024-03-29T06:02:39;96781.53;;;6.98;85.14
29907;BME280;16776;50.958;10.994;2024-03-29T06:05:08;96759.84;;;7.07;85.20
29907;BME280;16776;50.958;10.994;2024-03-29T06:07:35;96758.91;;;7.10;84.77
29907;BME280;16776;50.958;10.994;2024-03-29T06:10:02;96749.22;;;7.16;85.09
29907;BME280;16776;50.958;10.994;2024-03-29T06:12:29;96755.81;;;7.22;84.53
29907;BME280;16776;50.958;10.994;2024-03-29T06:14:56;96747.03;;;7.27;85.06
29907;BME280;16776;50.958;10.994;2024-03-29T06:17:40;96739.97;;;7.32;84.96
29907;BME280;16776;50.958;10.994;2024-03-29T06:20:08;96751.34;;;7.45;84.81
29907;BME280;16776;50.958;10.994;2024-03-29T06:22:35;96742.72;;;7.48;84.43
29907;BME280;16776;50.958;10.994;2024-03-29T06:25:02;96744.16;;;7.54;84.52
29907;BME280;16776;50.958;10.994;2024-03-29T06:27:30;96740.44;;;7.61;84.33
29907;BME280;16776;50.958;10.994;2024-03-29T06:29:57;96730.75;;;7.67;84.12
29907;BME280;16776;50.958;10.994;2024-03-29T06:32:23;96729.69;;;7.71;85.21
29907;BME280;16776;50.958;10.994;2024-03-29T06:34:50;96726.00;;;7.77;84.90
29907;BME280;16776;50.958;10.994;2024-03-29T06:37:18;96724.00;;;7.83;84.82
29907;BME280;16776;50.958;10.994;2024-03-29T06:39:47;96734.19;;;7.85;84.68
29907;BME280;16776;50.958;10.994;2024-03-29T06:42:13;96754.53;;;7.88;85.24
29907;BME280;16776;50.958;10.994;2024-03-29T06:44:40;96755.16;;;7.93;85.14
29907;BME280;16776;50.958;10.994;2024-03-29T06:47:07;96764.38;;;7.97;85.69
29907;BME280;16776;50.958;10.994;2024-03-29T06:49:34;96773.66;;;8.00;85.67
29907;BME280;16776;50.958;10.994;2024-03-29T06:52:00;96773.47;;;8.04;84.68
29907;BME280;16776;50.958;10.994;2024-03-29T06:54:29;96775.72;;;8.10;85.80
29907;BME280;16776;50.958;10.994;2024-03-29T06:56:56;96782.41;;;8.14;85.71
29907;BME280;16776;50.958;10.994;2024-03-29T06:59:23;96869.28;;;8.20;85.99
29907;BME280;16776;50.958;10.994;2024-03-29T07:01:50;96786.13;;;8.26;85.39
29907;BME280;16776;50.958;10.994;2024-03-29T07:04:18;96783.50;;;8.28;85.49
29907;BME280;16776;50.958;10.994;2024-03-29T07:06:46;96785.16;;;8.29;85.75
29907;BME280;16776;50.958;10.994;2024-03-29T07:09:15;96792.03;;;8.28;86.53
29907;BME280;16776;50.958;10.994;2024-03-29T07:11:45;96790.06;;;8.33;87.32
29907;BME280;16776;50.958;10.994;2024-03-29T07:14:11;96810.75;;;8.30;86.77
29907;BME280;16776;50.958;10.994;2024-03-29T07:16:38;96791.78;;;8.33;87.58
29907;BME280;16776;50.958;10.994;2024-03-29T07:19:05;96805.53;;;8.32;87.13
29907;BME280;16776;50.958;10.994;2024-03-29T07:21:31;96795.53;;;8.25;88.22
29907;BME280;16776;50.958;10.994;2024-03-29T07:23:58;96805.97;;;8.22;87.43
29907;BME280;16776;50.958;10.994;2024-03-29T07:26:24;96805.13;;;8.22;87.69
29907;BME280;16776;50.958;10.994;2024-03-29T07:28:52;96798.13;;;8.25;88.17
29907;BME280;16776;50.958;10.994;2024-03-29T07:31:19;96817.06;;;8.23;87.37
29907;BME280;16776;50.958;10.994;2024-03-29T07:33:45;96807.03;;;8.18;88.74
29907;BME280;16776;50.958;10.994;2024-03-29T07:36:12;96818.34;;;8.13;88.62
29907;BME280;16776;50.958;10.994;2024-03-29T07:38:41;96809.91;;;8.11;88.14
29907;BME280;16776;50.958;10.994;2024-03-29T07:41:08;96806.50;;;8.10;88.28
29907;BME280;16776;50.958;10.994;2024-03-29T07:43:39;96809.72;;;8.15;88.10
29907;BME280;16776;50.958;10.994;2024-03-29T07:46:07;96805.47;;;8.14;88.64
29907;BME280;16776;50.958;10.994;2024-03-29T07:48:35;96786.56;;;7.98;88.92
29907;BME280;16776;50.958;10.994;2024-03-29T07:51:01;96808.28;;;8.08;88.53
29907;BME280;16776;50.958;10.994;2024-03-29T07:53:28;96799.78;;;8.08;89.12
29907;BME280;16776;50.958;10.994;2024-03-29T07:55:55;96809.91;;;8.11;89.50
29907;BME280;16776;50.958;10.994;2024-03-29T07:58:21;96794.63;;;8.08;89.70
29907;BME280;16776;50.958;10.994;2024-03-29T08:00:49;96803.22;;;8.07;89.53
29907;BME280;16776;50.958;10.994;2024-03-29T08:03:17;96797.91;;;8.11;89.81
29907;BME280;16776;50.958;10.994;2024-03-29T08:05:55;96787.47;;;8.16;90.07
29907;BME280;16776;50.958;10.994;2024-03-29T08:08:22;96798.69;;;8.13;90.56
29907;BME280;16776;50.958;10.994;2024-03-29T08:10:50;96789.97;;;8.17;90.77
29907;BME280;16776;50.958;10.994;2024-03-29T08:13:17;96792.38;;;8.20;89.72
29907;BME280;16776;50.958;10.994;2024-03-29T08:15:45;96775.88;;;8.26;91.04
29907;BME280;16776;50.958;10.994;2024-03-29T08:18:12;96776.34;;;8.34;91.53
29907;BME280;16776;50.958;10.994;2024-03-29T08:20:40;96786.25;;;8.42;90.60
29907;BME280;16776;50.958;10.994;2024-03-29T08:23:06;96775.00;;;8.44;91.02
29907;BME280;16776;50.958;10.994;2024-03-29T08:25:33;96769.59;;;8.50;92.33
29907;BME280;16776;50.958;10.994;2024-03-29T08:27:59;96764.06;;;8.58;92.72
29907;BME280;16776;50.958;10.994;2024-03-29T08:30:27;96776.53;;;8.65;92.13
29907;BME280;16776;50.958;10.994;2024-03-29T08:33:00;96763.03;;;8.79;91.50
29907;BME280;16776;50.958;10.994;2024-03-29T08:35:27;96778.38;;;8.81;92.51
29907;BME280;16776;50.958;10.994;2024-03-29T08:37:55;96768.47;;;8.90;93.03
29907;BME280;16776;50.958;10.994;2024-03-29T08:40:22;96749.03;;;9.02;92.51
29907;BME280;16776;50.958;10.994;2024-03-29T08:42:49;96751.16;;;9.11;92.57
29907;BME280;16776;50.958;10.994;2024-03-29T08:45:16;96745.41;;;9.23;93.11
29907;BME280;16776;50.958;10.994;2024-03-29T08:47:42;96740.53;;;9.34;93.23
29907;BME280;16776;50.958;10.994;2024-03-29T08:50:09;96738.94;;;9.49;92.64
29907;BME280;16776;50.958;10.994;2024-03-29T08:52:35;96715.41;;;9.57;93.18
29907;BME280;16776;50.958;10.994;2024-03-29T08:55:05;96733.50;;;9.87;92.71
29907;BME280;16776;50.958;10.994;2024-03-29T08:57:32;96723.94;;;10.04;92.56
29907;BME280;16776;50.958;10.994;2024-03-29T08:59:59;96727.09;;;10.25;92.17
29907;BME280;16776;50.958;10.994;2024-03-29T09:02:26;96731.13;;;10.45;91.57
29907;BME280;16776;50.958;10.994;2024-03-29T09:04:53;96718.06;;;10.63;90.52
29907;BME280;16776;50.958;10.994;2024-03-29T09:07:19;96711.31;;;10.77;90.14
29907;BME280;16776;50.958;10.994;2024-03-29T09:09:48;96714.00;;;10.89;90.46
29907;BME280;16776;50.958;10.994;2024-03-29T09:12:16;96717.59;;;11.01;90.19
29907;BME280;16776;50.958;10.994;2024-03-29T09:14:43;96703.25;;;11.11;90.08
29907;BME280;16776;50.958;10.994;2024-03-29T09:17:10;96705.94;;;11.24;90.33
29907;BME280;16776;50.958;10.994;2024-03-29T09:19:37;96713.69;;;11.38;89.48
29907;BME280;16776;50.958;10.994;2024-03-29T09:22:03;96702.72;;;11.49;89.08
29907;BME280;16776;50.958;10.994;2024-03-29T09:24:30;96704.56;;;11.61;88.81
29907;BME280;16776;50.958;10.994;2024-03-29T09:26:57;96708.41;;;11.68;88.32
29907;BME280;16776;50.958;10.994;2024-03-29T09:29:25;96692.41;;;11.77;88.01
29907;BME280;16776;50.958;10.994;2024-03-29T09:31:51;96681.88;;;11.80;87.79
29907;BME280;16776;50.958;10.994;2024-03-29T09:34:18;96684.81;;;11.88;86.84
29907;BME280;16776;50.958;10.994;2024-03-29T09:36:44;96699.06;;;11.94;86.76
29907;BME280;16776;50.958;10.994;2024-03-29T09:39:11;96699.59;;;11.99;86.74
29907;BME280;16776;50.958;10.994;2024-03-29T09:41:38;96694.34;;;12.00;86.57
29907;BME280;16776;50.958;10.994;2024-03-29T09:44:07;96708.69;;;12.04;86.27
29907;BME280;16776;50.958;10.994;2024-03-29T09:46:36;96705.94;;;12.07;85.95
29907;BME280;16776;50.958;10.994;2024-03-29T09:49:05;96711.00;;;12.09;85.58
29907;BME280;16776;50.958;10.994;2024-03-29T09:51:34;96700.56;;;12.10;85.91
29907;BME280;16776;50.958;10.994;2024-03-29T09:54:01;96699.56;;;12.13;85.87
29907;BME280;16776;50.958;10.994;2024-03-29T09:56:29;96708.88;;;12.15;85.66
29907;BME280;16776;50.958;10.994;2024-03-29T09:58:56;96708.47;;;12.21;85.13
29907;BME280;16776;50.958;10.994;2024-03-29T10:01:23;96716.84;;;12.25;84.70
29907;BME280;16776;50.958;10.994;2024-03-29T10:03:53;96722.53;;;12.30;84.56
29907;BME280;16776;50.958;10.994;2024-03-29T10:06:23;96721.81;;;12.28;84.55
29907;BME280;16776;50.958;10.994;2024-03-29T10:08:50;96718.19;;;12.31;84.41
29907;BME280;16776;50.958;10.994;2024-03-29T10:11:20;96716.34;;;12.33;84.86
29907;BME280;16776;50.958;10.994;2024-03-29T10:13:46;96721.31;;;12.36;84.97
29907;BME280;16776;50.958;10.994;2024-03-29T10:16:13;96732.28;;;12.39;83.77
29907;BME280;16776;50.958;10.994;2024-03-29T10:18:43;96719.66;;;12.35;82.65
29907;BME280;16776;50.958;10.994;2024-03-29T10:21:11;96731.06;;;12.45;82.86
29907;BME280;16776;50.958;10.994;2024-03-29T10:23:38;96739.72;;;12.44;81.36
29907;BME280;16776;50.958;10.994;2024-03-29T10:26:05;96744.88;;;12.44;81.29
29907;BME280;16776;50.958;10.994;2024-03-29T10:28:33;96758.53;;;12.46;81.47
29907;BME280;16776;50.958;10.994;2024-03-29T10:31:01;96751.81;;;12.43;81.83
29907;BME280;16776;50.958;10.994;2024-03-29T10:33:28;96753.56;;;12.43;80.69
29907;BME280;16776;50.958;10.994;2024-03-29T10:35:56;96743.44;;;12.40;80.52
29907;BME280;16776;50.958;10.994;2024-03-29T10:38:26;96764.22;;;12.51;79.74
29907;BME280;16776;50.958;10.994;2024-03-29T10:40:53;96749.63;;;12.37;80.14
29907;BME280;16776;50.958;10.994;2024-03-29T10:43:20;96765.44;;;12.45;78.62
29907;BME280;16776;50.958;10.994;2024-03-29T10:45:47;96776.78;;;12.43;79.15
29907;BME280;16776;50.958;10.994;2024-03-29T10:48:16;96770.16;;;12.39;78.88
29907;BME280;16776;50.958;10.994;2024-03-29T10:50:43;96790.09;;;12.37;79.40
29907;BME280;16776;50.958;10.994;2024-03-29T10:53:10;96797.28;;;12.32;79.87
29907;BME280;16776;50.958;10.994;2024-03-29T10:55:38;96799.13;;;12.30;80.33
29907;BME280;16776;50.958;10.994;2024-03-29T10:58:05;96782.13;;;12.13;80.97
29907;BME280;16776;50.958;10.994;2024-03-29T11:00:33;96806.94;;;12.15;80.97
29907;BME280;16776;50.958;10.994;2024-03-29T11:03:09;96797.16;;;12.06;81.28
29907;BME280;16776;50.958;10.994;2024-03-29T11:05:44;96797.63;;;11.99;81.91
29907;BME280;16776;50.958;10.994;2024-03-29T11:08:13;96805.13;;;11.89;82.51
29907;BME280;16776;50.958;10.994;2024-03-29T11:10:47;96779.69;;;11.83;82.52
29907;BME280;16776;50.958;10.994;2024-03-29T11:13:19;96775.25;;;11.71;82.87
29907;BME280;16776;50.958;10.994;2024-03-29T11:15:51;96738.03;;;11.32;83.24
29907;BME280;16776;50.958;10.994;2024-03-29T11:18:18;96784.28;;;11.50;83.47
29907;BME280;16776;50.958;10.994;2024-03-29T11:20:46;96797.41;;;11.45;83.83
29907;BME280;16776;50.958;10.994;2024-03-29T11:23:17;96805.50;;;11.39;84.28
29907;BME280;16776;50.958;10.994;2024-03-29T11:25:49;96808.91;;;11.39;84.71
29907;BME280;16776;50.958;10.994;2024-03-29T11:28:23;96818.22;;;11.42;85.05
29907;BME280;16776;50.958;10.994;2024-03-29T11:30:52;96813.41;;;11.22;85.28
29907;BME280;16776;50.958;10.994;2024-03-29T11:33:30;96839.69;;;11.42;85.11
29907;BME280;16776;50.958;10.994;2024-03-29T11:35:57;96824.03;;;11.31;85.45
29907;BME280;16776;50.958;10.994;2024-03-29T11:38:31;96812.06;;;11.30;85.44
29907;BME280;16776;50.958;10.994;2024-03-29T11:41:04;96803.78;;;11.25;85.81
29907;BME280;16776;50.958;10.994;2024-03-29T11:43:32;96816.78;;;11.08;86.57
29907;BME280;16776;50.958;10.994;2024-03-29T11:46:00;96806.81;;;11.02;86.98
29907;BME280;16776;50.958;10.994;2024-03-29T11:48:29;96783.38;;;10.77;87.04
29907;BME280;16776;50.958;10.994;2024-03-29T11:50:56;96807.81;;;10.85;87.39
29907;BME280;16776;50.958;10.994;2024-03-29T11:53:23;96802.16;;;10.79;87.44
29907;BME280;16776;50.958;10.994;2024-03-29T11:55:50;96810.88;;;10.76;87.98
29907;BME280;16776;50.958;10.994;2024-03-29T11:58:21;96782.63;;;10.75;88.42
29907;BME280;16776;50.958;10.994;2024-03-29T12:00:48;96740.78;;;10.41;88.67
29907;BME280;16776;50.958;10.994;2024-03-29T12:03:16;96800.28;;;10.67;89.01
29907;BME280;16776;50.958;10.994;2024-03-29T12:05:43;96799.53;;;10.64;89.22
29907;BME280;16776;50.958;10.994;2024-03-29T12:08:09;96803.09;;;10.62;89.61
29907;BME280;16776;50.958;10.994;2024-03-29T12:10:36;96816.06;;;10.60;89.54
29907;BME280;16776;50.958;10.994;2024-03-29T12:13:04;96809.25;;;10.59;90.16
29907;BME280;16776;50.958;10.994;2024-03-29T12:15:32;96810.09;;;10.60;90.26
29907;BME280;16776;50.958;10.994;2024-03-29T12:18:00;96809.41;;;10.56;90.57
29907;BME280;16776;50.958;10.994;2024-03-29T12:20:28;96811.28;;;10.54;90.79
29907;BME280;16776;50.958;10.994;2024-03-29T12:22:55;96796.28;;;10.45;91.00
29907;BME280;16776;50.958;10.994;2024-03-29T12:25:21;96806.31;;;10.50;91.12
29907;BME280;16776;50.958;10.994;2024-03-29T12:27:48;96817.56;;;10.49;91.65
29907;BME280;16776;50.958;10.994;2024-03-29T12:30:14;96813.31;;;10.48;91.62
29907;BME280;16776;50.958;10.994;2024-03-29T12:32:43;96800.22;;;10.52;91.79
29907;BME280;16776;50.958;10.994;2024-03-29T12:35:10;96782.28;;;10.35;91.95
29907;BME280;16776;50.958;10.994;2024-03-29T12:37:37;96808.81;;;10.51;92.04
29907;BME280;16776;50.958;10.994;2024-03-29T12:40:06;96798.47;;;10.53;92.35
29907;BME280;16776;50.958;10.994;2024-03-29T12:42:37;96809.25;;;10.59;90.83
29907;BME280;16776;50.958;10.994;2024-03-29T12:45:05;96807.25;;;10.49;92.04
29907;BME280;16776;50.958;10.994;2024-03-29T12:47:32;96800.22;;;10.52;92.15
29907;BME280;16776;50.958;10.994;2024-03-29T12:50:02;96796.41;;;10.59;92.24
29907;BME280;16776;50.958;10.994;2024-03-29T12:52:36;96787.50;;;10.65;92.11
29907;BME280;16776;50.958;10.994;2024-03-29T12:55:03;96784.34;;;10.60;92.12
29907;BME280;16776;50.958;10.994;2024-03-29T12:57:32;96781.50;;;10.64;92.68